createdAt,value
2018-12-03T00:01:32.162Z,99787.30
2018-12-03T00:04:22.589Z,99782.27
2018-12-03T00:06:51.805Z,99778.34
2018-12-03T00:09:21.123Z,99780.07
2018-12-03T00:11:50.298Z,99779.89
2018-12-03T00:14:19.310Z,99775.80
2018-12-03T00:16:48.206Z,99775.41
2018-12-03T00:19:17.125Z,99770.91
2018-12-03T00:21:46.075Z,99771.95
2018-12-03T00:24:15.009Z,99771.16
2018-12-03T00:26:43.873Z,99776.05
2018-12-03T00:29:12.818Z,99766.05
2018-12-03T00:31:41.709Z,99771.91
2018-12-03T00:34:10.711Z,99769.41
2018-12-03T00:36:39.568Z,99767.45
2018-12-03T00:39:08.835Z,99764.87
2018-12-03T00:41:37.811Z,99766.05
2018-12-03T00:44:06.902Z,99769.77
2018-12-03T00:46:35.839Z,99771.30
2018-12-03T00:49:04.970Z,99762.39
2018-12-03T00:51:33.838Z,99758.47
2018-12-03T00:54:02.681Z,99765.84
2018-12-03T00:56:31.611Z,99765.88
2018-12-03T00:59:00.521Z,99762.13
2018-12-03T01:01:34.740Z,99771.95
2018-12-03T01:04:04.447Z,99760.81
2018-12-03T01:06:33.612Z,99762.56
2018-12-03T01:09:02.760Z,99758.47
2018-12-03T01:11:31.579Z,99764.52
2018-12-03T01:14:00.431Z,99762.17
2018-12-03T01:16:29.315Z,99760.59
2018-12-03T01:18:58.227Z,99761.20
2018-12-03T01:21:27.207Z,99763.17
2018-12-03T01:23:56.130Z,99760.41
2018-12-03T01:26:24.975Z,99756.28
2018-12-03T01:28:53.791Z,99751.84
2018-12-03T01:31:22.710Z,99753.94
2018-12-03T01:33:51.619Z,99748.08
2018-12-03T01:36:20.553Z,99748.33
2018-12-03T01:38:49.382Z,99751.24
2018-12-03T01:41:18.283Z,99742.65
2018-12-03T01:43:47.168Z,99746.56
2018-12-03T01:46:16.190Z,99743.59
2018-12-03T01:48:45.083Z,99740.09
2018-12-03T01:51:13.991Z,99745.16
2018-12-03T01:53:42.852Z,99738.91
2018-12-03T01:56:11.813Z,99737.80
2018-12-03T01:58:40.746Z,99739.16
2018-12-03T02:01:09.698Z,99738.73
2018-12-03T02:03:39.174Z,99741.47
2018-12-03T02:06:08.079Z,99744.95
2018-12-03T02:08:37.268Z,99747.50
2018-12-03T02:11:06.593Z,99741.06
2018-12-03T02:13:35.416Z,99742.22
2018-12-03T02:16:04.645Z,99732.51
2018-12-03T02:18:33.494Z,99734.45
2018-12-03T02:21:02.376Z,99731.14
2018-12-03T02:23:31.227Z,99725.25
2018-12-03T02:26:00.066Z,99726.86
2018-12-03T02:28:28.891Z,99717.08
2018-12-03T02:30:58.303Z,99723.91
2018-12-03T02:33:27.150Z,99717.48
2018-12-03T02:35:56.048Z,99706.91
2018-12-03T02:38:24.950Z,99705.73
2018-12-03T02:40:53.791Z,99707.52
2018-12-03T02:43:22.703Z,99704.39
2018-12-03T02:45:51.514Z,99704.20
2018-12-03T02:48:20.516Z,99702.66
2018-12-03T02:50:49.342Z,99709.89
2018-12-03T02:53:18.194Z,99704.78
2018-12-03T02:55:47.078Z,99704.02
2018-12-03T02:58:15.978Z,99709.09
2018-12-03T03:00:46.326Z,99706.94
2018-12-03T03:03:13.865Z,99706.76
2018-12-03T03:05:42.738Z,99708.12
2018-12-03T03:08:11.620Z,99708.28
2018-12-03T03:10:40.396Z,99713.20
2018-12-03T03:13:09.349Z,99709.86
2018-12-03T03:15:38.175Z,99706.55
2018-12-03T03:18:07.430Z,99716.50
2018-12-03T03:20:36.580Z,99718.08
2018-12-03T03:23:06.024Z,99704.41
2018-12-03T03:25:35.109Z,99700.89
2018-12-03T03:28:04.049Z,99689.16
2018-12-03T03:30:32.900Z,99675.33
2018-12-03T03:33:01.762Z,99680.80
2018-12-03T03:35:30.641Z,99681.77
2018-12-03T03:37:59.623Z,99682.34
2018-12-03T03:40:28.487Z,99682.15
2018-12-03T03:42:57.477Z,99689.95
2018-12-03T03:45:26.595Z,99677.84
2018-12-03T03:47:55.417Z,99684.68
2018-12-03T03:50:24.360Z,99678.05
2018-12-03T03:52:53.244Z,99684.88
2018-12-03T03:55:22.189Z,99685.46
2018-12-03T03:57:51.028Z,99680.96
2018-12-03T04:00:19.907Z,99687.04
2018-12-03T04:02:48.819Z,99677.25
2018-12-03T04:05:17.734Z,99676.66
2018-12-03T04:07:46.953Z,99675.47
2018-12-03T04:10:16.423Z,99677.46
2018-12-03T04:12:46.444Z,99681.55
2018-12-03T04:15:16.627Z,99677.46
2018-12-03T04:17:45.483Z,99682.92
2018-12-03T04:20:18.897Z,99677.24
2018-12-03T04:22:49.925Z,99681.94
2018-12-03T04:25:18.894Z,99681.73
2018-12-03T04:27:48.240Z,99674.12
2018-12-03T04:30:19.207Z,99671.59
2018-12-03T04:32:48.046Z,99669.23
2018-12-03T04:35:16.956Z,99664.75
2018-12-03T04:37:45.998Z,99664.94
2018-12-03T04:40:16.492Z,99666.69
2018-12-03T04:42:45.361Z,99669.03
2018-12-03T04:45:17.887Z,99656.92
2018-12-03T04:47:48.414Z,99659.27
2018-12-03T04:50:19.959Z,99655.75
2018-12-03T04:52:48.837Z,99654.59
2018-12-03T04:55:19.192Z,99643.44
2018-12-03T04:57:48.279Z,99655.57
2018-12-03T05:00:18.746Z,99644.80
2018-12-03T05:02:50.342Z,99648.72
2018-12-03T05:05:19.256Z,99640.92
2018-12-03T05:07:48.232Z,99638.17
2018-12-03T05:10:18.697Z,99641.30
2018-12-03T05:12:50.550Z,99636.59
2018-12-03T05:15:19.475Z,99639.58
2018-12-03T05:17:48.395Z,99639.95
2018-12-03T05:20:21.371Z,99645.60
2018-12-03T05:22:50.243Z,99642.86
2018-12-03T05:25:19.708Z,99638.95
2018-12-03T05:27:48.122Z,99641.09
2018-12-03T05:30:17.423Z,99641.30
2018-12-03T05:32:46.966Z,99643.03
2018-12-03T05:35:25.190Z,99649.13
2018-12-03T05:37:54.190Z,99653.41
2018-12-03T05:40:26.216Z,99645.97
2018-12-03T05:42:55.170Z,99657.70
2018-12-03T05:45:24.481Z,99650.25
2018-12-03T05:47:53.375Z,99654.56
2018-12-03T05:50:22.603Z,99643.41
2018-12-03T05:52:51.768Z,99641.07
2018-12-03T05:55:20.657Z,99641.67
2018-12-03T05:57:49.504Z,99645.79
2018-12-03T06:00:21.444Z,99651.84
2018-12-03T06:02:50.974Z,99644.81
2018-12-03T06:05:19.813Z,99656.13
2018-12-03T06:07:48.706Z,99665.52
2018-12-03T06:10:19.771Z,99660.64
2018-12-03T06:12:49.063Z,99664.16
2018-12-03T06:15:19.371Z,99654.78
2018-12-03T06:17:50.091Z,99655.36
2018-12-03T06:20:20.071Z,99656.95
2018-12-03T06:22:50.990Z,99646.77
2018-12-03T06:25:23.387Z,99647.19
2018-12-03T06:27:52.205Z,99655.00
2018-12-03T06:30:22.887Z,99655.97
2018-12-03T06:32:51.780Z,99658.52
2018-12-03T06:35:21.120Z,99666.89
2018-12-03T06:37:50.545Z,99669.07
2018-12-03T06:40:28.759Z,99674.73
2018-12-03T06:42:57.699Z,99668.48
2018-12-03T06:45:27.352Z,99665.54
2018-12-03T06:48:01.602Z,99666.15
2018-12-03T06:50:30.422Z,99666.73
2018-12-03T06:52:59.406Z,99673.97
2018-12-03T06:55:28.302Z,99676.09
2018-12-03T06:57:57.688Z,99680.00
2018-12-03T07:00:26.955Z,99685.47
2018-12-03T07:02:56.499Z,99688.37
2018-12-03T07:05:25.382Z,99694.63
2018-12-03T07:07:57.964Z,99699.13
2018-12-03T07:10:26.952Z,99696.61
2018-12-03T07:13:01.306Z,99690.53
2018-12-03T07:15:33.136Z,99697.19
2018-12-03T07:18:01.977Z,99701.47
2018-12-03T07:20:30.866Z,99706.16
2018-12-03T07:22:59.786Z,99704.41
2018-12-03T07:25:28.687Z,99697.97
2018-12-03T07:27:57.603Z,99706.17
2018-12-03T07:30:26.975Z,99705.38
2018-12-03T07:32:55.860Z,99713.00
2018-12-03T07:35:25.420Z,99719.44
2018-12-03T07:37:56.210Z,99719.63
2018-12-03T07:40:25.135Z,99717.86
2018-12-03T07:42:53.959Z,99705.96
2018-12-03T07:45:24.172Z,99717.69
2018-12-03T07:47:53.034Z,99730.95
2018-12-03T07:50:23.437Z,99731.72
2018-12-03T07:52:52.590Z,99730.35
2018-12-03T07:55:24.150Z,99737.19
2018-12-03T07:58:01.269Z,99736.61
2018-12-03T08:00:33.769Z,99751.45
2018-12-03T08:03:02.619Z,99745.98
2018-12-03T08:05:31.450Z,99738.73
2018-12-03T08:08:00.334Z,99744.95
2018-12-03T08:10:29.219Z,99746.53
2018-12-03T08:12:58.062Z,99747.28
2018-12-03T08:15:26.930Z,99754.50
2018-12-03T08:17:59.857Z,99751.78
2018-12-03T08:20:43.990Z,99750.42
2018-12-03T08:23:20.564Z,99749.69
2018-12-03T08:25:49.415Z,99758.68
2018-12-03T08:28:18.410Z,99766.27
2018-12-03T08:30:47.372Z,99764.91
2018-12-03T08:33:16.230Z,99765.13
2018-12-03T08:35:45.116Z,99766.88
2018-12-03T08:38:13.935Z,99764.15
2018-12-03T08:40:42.776Z,99767.46
2018-12-03T08:43:11.743Z,99765.52
2018-12-03T08:45:41.112Z,99765.13
2018-12-03T08:48:09.948Z,99769.62
2018-12-03T08:50:43.594Z,99773.72
2018-12-03T08:53:12.512Z,99777.61
2018-12-03T08:55:41.470Z,99773.72
2018-12-03T08:58:13.575Z,99781.52
2018-12-03T09:02:06.104Z,99780.34
2018-12-03T09:04:35.119Z,99785.23
2018-12-03T09:07:04.054Z,99786.99
2018-12-03T09:09:32.977Z,99786.41
2018-12-03T09:12:01.832Z,99790.52
2018-12-03T09:14:33.498Z,99782.70
2018-12-03T09:17:02.819Z,99792.45
2018-12-03T09:19:31.582Z,99790.52
2018-12-03T09:22:00.473Z,99795.21
2018-12-03T09:24:29.553Z,99799.69
2018-12-03T09:26:58.374Z,99795.00
2018-12-03T09:29:27.330Z,99804.97
2018-12-03T09:31:56.180Z,99813.36
2018-12-03T09:34:25.055Z,99808.67
2018-12-03T09:36:53.867Z,99812.97
2018-12-03T09:39:22.763Z,99819.62
2018-12-03T09:41:51.659Z,99819.22
2018-12-03T09:44:20.578Z,99818.64
2018-12-03T09:46:49.399Z,99825.09
2018-12-03T09:49:18.281Z,99818.83
2018-12-03T09:51:47.173Z,99815.33
2018-12-03T09:54:16.216Z,99814.33
2018-12-03T09:56:49.044Z,99820.98
2018-12-03T09:59:22.303Z,99820.98
2018-12-03T10:01:55.239Z,99822.35
2018-12-03T10:04:29.254Z,99814.94
2018-12-03T10:06:58.347Z,99809.46
2018-12-03T10:09:27.895Z,99809.65
2018-12-03T10:11:59.461Z,99806.91
2018-12-03T10:14:28.706Z,99808.09
2018-12-03T10:16:57.660Z,99802.23
2018-12-03T10:19:26.695Z,99799.50
2018-12-03T10:21:56.281Z,99801.84
2018-12-03T10:24:25.283Z,99797.55
2018-12-03T10:26:54.740Z,99798.31
2018-12-03T10:29:23.830Z,99791.09
2018-12-03T10:31:52.872Z,99793.05
2018-12-03T10:34:21.799Z,99783.88
2018-12-03T10:36:56.904Z,99790.88
2018-12-03T10:39:30.619Z,99799.10
2018-12-03T10:42:10.358Z,99797.15
2018-12-03T10:44:40.453Z,99791.29
2018-12-03T10:47:09.833Z,99799.88
2018-12-03T10:49:39.019Z,99794.22
2018-12-03T10:52:08.081Z,99797.91
2018-12-03T10:54:40.454Z,99795.36
2018-12-03T10:57:10.867Z,99803.00
2018-12-03T10:59:39.941Z,99797.53
2018-12-03T11:03:13.773Z,99793.81
2018-12-03T11:05:49.163Z,99791.66
2018-12-03T11:08:24.145Z,99789.50
2018-12-03T11:10:55.362Z,99789.52
2018-12-03T11:13:25.047Z,99789.14
2018-12-03T11:15:54.097Z,99789.91
2018-12-03T11:18:23.205Z,99796.34
2018-12-03T11:20:52.173Z,99795.79
2018-12-03T11:23:23.467Z,99792.64
2018-12-03T11:25:52.928Z,99795.78
2018-12-03T11:28:21.848Z,99788.92
2018-12-03T11:30:54.359Z,99789.71
2018-12-03T11:33:26.965Z,99786.56
2018-12-03T11:35:58.258Z,99792.42
2018-12-03T11:38:40.424Z,99792.25
2018-12-03T11:41:09.347Z,99792.45
2018-12-03T11:43:38.279Z,99789.88
2018-12-03T11:46:07.526Z,99785.78
2018-12-03T11:48:36.571Z,99789.07
2018-12-03T11:51:06.887Z,99781.83
2018-12-03T11:53:36.726Z,99783.02
2018-12-03T11:56:07.075Z,99775.20
2018-12-03T11:58:36.066Z,99775.01
2018-12-03T12:01:05.192Z,99774.03
2018-12-03T12:03:42.628Z,99767.75
2018-12-03T12:06:08.990Z,99767.98
2018-12-03T12:08:45.070Z,99773.23
2018-12-03T12:11:14.167Z,99773.42
2018-12-03T12:13:43.333Z,99779.92
2018-12-03T12:16:12.564Z,99770.91
2018-12-03T12:18:42.200Z,99771.84
2018-12-03T12:21:11.783Z,99774.23
2018-12-03T12:23:40.861Z,99774.81
2018-12-03T12:26:10.715Z,99775.61
2018-12-03T12:28:40.156Z,99774.26
2018-12-03T12:31:09.513Z,99773.84
2018-12-03T12:33:38.728Z,99775.22
2018-12-03T12:36:08.346Z,99777.96
2018-12-03T12:38:37.545Z,99778.34
2018-12-03T12:41:07.064Z,99778.16
2018-12-03T12:43:36.132Z,99784.62
2018-12-03T12:46:10.534Z,99782.09
2018-12-03T12:48:39.592Z,99783.05
2018-12-03T12:51:09.035Z,99779.77
2018-12-03T12:53:37.984Z,99782.70
2018-12-03T12:56:07.249Z,99783.89
2018-12-03T12:58:36.559Z,99779.78
2018-12-03T13:01:06.928Z,99769.02
2018-12-03T13:03:37.511Z,99770.79
2018-12-03T13:06:07.010Z,99775.86
2018-12-03T13:08:37.054Z,99782.70
2018-12-03T13:11:07.471Z,99776.83
2018-12-03T13:13:36.578Z,99774.30
2018-12-03T13:16:06.137Z,99771.17
2018-12-03T13:18:35.236Z,99772.13
2018-12-03T13:21:05.059Z,99770.95
2018-12-03T13:23:33.948Z,99771.16
2018-12-03T13:26:02.921Z,99770.20
2018-12-03T13:28:32.203Z,99770.59
2018-12-03T13:31:01.389Z,99773.91
2018-12-03T13:33:31.151Z,99771.75
2018-12-03T13:36:01.527Z,99770.97
2018-12-03T13:38:30.862Z,99776.25
2018-12-03T13:41:00.465Z,99779.95
2018-12-03T13:43:29.729Z,99766.50
2018-12-03T13:45:58.826Z,99767.48
2018-12-03T13:48:27.965Z,99764.52
2018-12-03T13:50:57.180Z,99768.23
2018-12-03T13:53:26.287Z,99767.86
2018-12-03T13:55:55.938Z,99766.50
2018-12-03T13:58:25.696Z,99769.03
2018-12-03T14:00:54.812Z,99770.00
2018-12-03T14:03:29.678Z,99770.41
2018-12-03T14:06:15.419Z,99769.42
2018-12-03T14:09:48.911Z,99771.18
2018-12-03T14:12:41.155Z,99768.06
2018-12-03T14:15:29.733Z,99767.09
2018-12-03T14:18:39.287Z,99767.67
2018-12-03T14:21:20.331Z,99773.32
2018-12-03T14:23:52.828Z,99777.61
2018-12-03T14:26:21.754Z,99774.52
2018-12-03T14:28:51.004Z,99779.58
2018-12-03T14:31:20.004Z,99762.97
2018-12-03T14:33:49.066Z,99775.08
2018-12-03T14:36:18.463Z,99770.19
2018-12-03T14:38:47.364Z,99770.58
2018-12-03T14:41:16.509Z,99772.71
2018-12-03T14:43:45.609Z,99770.20
2018-12-03T14:46:14.515Z,99767.25
2018-12-03T14:48:43.374Z,99770.34
2018-12-03T14:51:12.266Z,99774.68
2018-12-03T14:53:41.128Z,99775.41
2018-12-03T14:56:10.110Z,99772.28
2018-12-03T14:58:38.957Z,99773.86
2018-12-03T15:01:08.703Z,99772.66
2018-12-03T15:03:37.695Z,99778.74
2018-12-03T15:06:07.880Z,99776.77
2018-12-03T15:08:37.005Z,99779.49
2018-12-03T15:11:07.256Z,99782.84
2018-12-03T15:13:36.445Z,99770.91
2018-12-03T15:16:05.596Z,99766.97
2018-12-03T15:18:34.731Z,99769.34
2018-12-03T15:21:03.663Z,99767.37
2018-12-03T15:23:32.529Z,99765.03
2018-12-03T15:26:01.410Z,99758.75
2018-12-03T15:28:30.326Z,99768.55
2018-12-03T15:30:59.596Z,99772.42
2018-12-03T15:33:28.439Z,99777.14
2018-12-03T15:35:57.299Z,99777.88
2018-12-03T15:38:58.688Z,99787.09
2018-12-03T15:41:27.816Z,99789.41
2018-12-03T15:43:56.738Z,99789.00
2018-12-03T15:46:26.140Z,99782.36
2018-12-03T15:48:55.138Z,99774.39
2018-12-03T15:51:24.177Z,99776.69
2018-12-03T15:53:53.847Z,99779.02
2018-12-03T15:56:24.513Z,99782.34
2018-12-03T15:58:54.220Z,99777.80
2018-12-03T16:01:23.198Z,99783.62
2018-12-03T16:03:52.853Z,99780.50
2018-12-03T16:06:22.285Z,99785.74
2018-12-03T16:08:51.760Z,99785.16
2018-12-03T16:11:21.450Z,99786.12
2018-12-03T16:13:50.935Z,99781.09
2018-12-03T16:16:19.928Z,99779.31
2018-12-03T16:18:50.055Z,99780.81
2018-12-03T16:21:19.107Z,99789.64
2018-12-03T16:23:48.419Z,99791.79
2018-12-03T16:26:17.433Z,99794.09
2018-12-03T16:28:46.528Z,99788.44
2018-12-03T16:31:15.791Z,99784.34
2018-12-03T16:33:44.753Z,99785.72
2018-12-03T16:36:14.049Z,99785.93
2018-12-03T16:38:43.060Z,99785.14
2018-12-03T16:41:11.965Z,99778.52
2018-12-03T16:43:40.976Z,99774.81
2018-12-03T16:46:09.939Z,99777.74
2018-12-03T16:48:38.908Z,99778.50
2018-12-03T16:51:07.816Z,99773.22
2018-12-03T16:53:37.007Z,99775.76
2018-12-03T16:56:05.977Z,99762.03
2018-12-03T16:58:35.102Z,99761.22
2018-12-03T17:01:04.367Z,99761.29
2018-12-03T17:03:33.322Z,99762.95
2018-12-03T17:06:02.224Z,99769.88
2018-12-03T17:08:31.402Z,99774.35
2018-12-03T17:11:00.891Z,99769.27
2018-12-03T17:13:29.827Z,99758.22
2018-12-03T17:15:58.763Z,99763.67
2018-12-03T17:18:27.711Z,99763.16
2018-12-03T17:21:07.275Z,99761.80
2018-12-03T17:24:13.136Z,99766.52
2018-12-03T17:26:42.477Z,99764.17
2018-12-03T17:29:11.419Z,99767.27
2018-12-03T17:31:40.436Z,99767.68
2018-12-03T17:34:09.396Z,99768.15
2018-12-03T17:36:38.907Z,99768.15
2018-12-03T17:39:08.653Z,99759.76
2018-12-03T17:41:37.591Z,99763.95
2018-12-03T17:44:07.312Z,99767.63
2018-12-03T17:46:36.254Z,99758.92
2018-12-03T17:49:05.407Z,99765.67
2018-12-03T17:51:34.409Z,99758.50
2018-12-03T17:54:03.869Z,99761.20
2018-12-03T17:56:33.253Z,99750.70
2018-12-03T17:59:02.585Z,99751.91
2018-12-03T18:01:31.531Z,99745.62
2018-12-03T18:04:00.557Z,99740.01
2018-12-03T18:06:29.469Z,99735.82
2018-12-03T18:08:58.485Z,99737.90
2018-12-03T18:11:27.363Z,99733.24
2018-12-03T18:13:56.520Z,99735.08
2018-12-03T18:16:26.187Z,99729.81
2018-12-03T18:18:55.111Z,99722.40
2018-12-03T18:21:24.043Z,99726.11
2018-12-03T18:23:53.042Z,99729.61
2018-12-03T18:26:21.904Z,99727.11
2018-12-03T18:28:50.870Z,99729.45
2018-12-03T18:31:19.926Z,99717.36
2018-12-03T18:33:49.292Z,99727.52
2018-12-03T18:36:18.578Z,99729.66
2018-12-03T18:38:47.677Z,99732.02
2018-12-03T18:41:16.640Z,99733.55
2018-12-03T18:43:45.878Z,99745.82
2018-12-03T18:46:15.182Z,99741.53
2018-12-03T18:48:45.839Z,99745.82
2018-12-03T18:51:14.791Z,99747.39
2018-12-03T18:53:43.663Z,99744.84
2018-12-03T18:56:12.575Z,99746.21
2018-12-03T18:59:03.684Z,99748.55
2018-12-03T19:01:33.152Z,99745.06
2018-12-03T19:04:02.360Z,99736.50
2018-12-03T19:06:32.579Z,99734.35
2018-12-03T19:09:01.642Z,99726.74
2018-12-03T19:11:30.631Z,99720.97
2018-12-03T19:13:59.777Z,99719.98
2018-12-03T19:16:28.718Z,99720.71
2018-12-03T19:18:57.607Z,99716.23
2018-12-03T19:21:26.633Z,99712.76
2018-12-03T19:23:55.595Z,99721.69
2018-12-03T19:26:24.878Z,99720.75
2018-12-03T19:28:53.931Z,99725.25
2018-12-03T19:31:22.890Z,99730.27
2018-12-03T19:33:51.868Z,99729.56
2018-12-03T19:36:20.774Z,99730.33
2018-12-03T19:38:50.004Z,99726.64
2018-12-03T19:41:18.957Z,99726.83
2018-12-03T19:43:47.877Z,99720.43
2018-12-03T19:46:16.918Z,99723.66
2018-12-03T19:48:45.817Z,99721.72
2018-12-03T19:51:14.726Z,99722.89
2018-12-03T19:53:44.572Z,99728.09
2018-12-03T19:56:13.865Z,99734.73
2018-12-03T19:58:46.579Z,99737.67
2018-12-03T20:01:15.607Z,99734.58
2018-12-03T20:03:44.542Z,99734.91
2018-12-03T20:06:13.700Z,99745.12
2018-12-03T20:08:42.790Z,99740.97
2018-12-03T20:11:11.806Z,99753.05
2018-12-03T20:13:40.816Z,99748.63
2018-12-03T20:16:11.027Z,99760.75
2018-12-03T20:18:40.455Z,99760.61
2018-12-03T20:21:20.425Z,99753.82
2018-12-03T20:24:02.555Z,99764.70
2018-12-03T20:26:44.317Z,99759.05
2018-12-03T20:29:31.979Z,99755.57
2018-12-03T20:32:46.817Z,99759.81
2018-12-03T20:37:28.952Z,99765.48
2018-12-03T20:40:22.761Z,99767.04
2018-12-03T20:42:59.613Z,99767.23
2018-12-03T20:45:47.145Z,99774.24
2018-12-03T20:48:19.452Z,99784.94
2018-12-03T20:50:59.253Z,99798.81
2018-12-03T20:53:43.322Z,99798.34
2018-12-03T20:56:13.576Z,99827.20
2018-12-03T20:58:42.570Z,99837.52
2018-12-03T21:01:11.502Z,99843.17
2018-12-03T21:03:40.498Z,99860.02
2018-12-03T21:06:09.448Z,99869.30
2018-12-03T21:08:38.419Z,99881.32
2018-12-03T21:11:07.491Z,99888.14
2018-12-03T21:13:36.866Z,99905.30
2018-12-03T21:16:06.095Z,99908.48
2018-12-03T21:18:35.090Z,99916.17
2018-12-03T21:21:07.265Z,99919.17
2018-12-03T21:23:36.235Z,99921.12
2018-12-03T21:26:05.612Z,99927.56
2018-12-03T21:28:34.999Z,99948.42
2018-12-03T21:31:03.983Z,99951.08
2018-12-03T21:33:33.064Z,99954.12
2018-12-03T21:36:01.978Z,99963.66
2018-12-03T21:38:30.922Z,99969.95
2018-12-03T21:40:59.809Z,99982.55
2018-12-03T21:43:28.806Z,99991.86
2018-12-03T21:45:57.785Z,99995.38
2018-12-03T21:48:26.981Z,100002.75
2018-12-03T21:50:56.358Z,100017.17
2018-12-03T21:53:25.335Z,100019.02
2018-12-03T21:55:54.547Z,100024.29
2018-12-03T21:58:23.661Z,100023.86
2018-12-03T22:00:52.566Z,100019.72
2018-12-03T22:03:21.500Z,100026.22
2018-12-03T22:05:50.434Z,100036.49
2018-12-03T22:08:19.358Z,100043.95
2018-12-03T22:10:48.846Z,100055.28
2018-12-03T22:13:18.156Z,100052.60
2018-12-03T22:15:47.044Z,100056.31
2018-12-03T22:18:16.061Z,100073.50
2018-12-03T22:20:44.984Z,100075.27
2018-12-03T22:23:14.325Z,100081.42
2018-12-03T22:25:43.247Z,100084.63
2018-12-03T22:28:12.084Z,100094.20
2018-12-03T22:30:40.991Z,100103.30
2018-12-03T22:33:09.901Z,100104.87
2018-12-03T22:35:38.925Z,100111.89
2018-12-03T22:38:07.773Z,100119.05
2018-12-03T22:40:36.694Z,100134.74
2018-12-03T22:43:05.589Z,100131.69
2018-12-03T22:45:34.542Z,100127.90
2018-12-03T22:48:03.558Z,100145.84
2018-12-03T22:50:32.490Z,100153.07
2018-12-03T22:53:01.428Z,100155.27
2018-12-03T22:55:30.861Z,100160.86
2018-12-03T22:57:59.838Z,100164.78
2018-12-03T23:00:34.663Z,100177.84
2018-12-03T23:03:03.717Z,100176.41
2018-12-03T23:05:32.715Z,100190.16
2018-12-03T23:08:03.535Z,100197.30
2018-12-03T23:10:34.504Z,100208.56
2018-12-03T23:13:03.803Z,100212.46
2018-12-03T23:15:38.990Z,100216.47
2018-12-03T23:18:08.071Z,100220.03
2018-12-03T23:20:37.047Z,100230.54
2018-12-03T23:23:05.956Z,100232.05
2018-12-03T23:25:36.804Z,100240.03
2018-12-03T23:28:05.701Z,100246.16
2018-12-03T23:30:34.771Z,100247.87
2018-12-03T23:33:04.002Z,100248.52
2018-12-03T23:35:33.512Z,100244.16
2018-12-03T23:38:02.447Z,100253.59
2018-12-03T23:40:31.837Z,100266.88
2018-12-03T23:43:00.847Z,100270.95
2018-12-03T23:45:29.736Z,100275.28
2018-12-03T23:47:58.679Z,100277.16
2018-12-03T23:50:27.595Z,100291.03
2018-12-03T23:52:56.648Z,100287.48
2018-12-03T23:55:25.579Z,100302.02
2018-12-03T23:57:54.635Z,100306.09
